sensor_id;sensor_type;location;lat;lon;timestamp;pressure;altitude;pressure_sealevel;temperature;humidity
78309;BME280;75657;42.022;21.356;2024-02-21T00:00:52;99471.78;;;8.11;64.41
78309;BME280;75657;42.022;21.356;2024-02-21T00:03:18;99472.31;;;8.08;64.91
78309;BME280;75657;42.022;21.356;2024-02-21T00:05:43;99470.97;;;8.05;65.16
78309;BME280;75657;42.022;21.356;2024-02-21T00:08:09;99468.03;;;8.02;65.06
78309;BME280;75657;42.022;21.356;2024-02-21T00:10:37;99471.75;;;8.01;64.54
78309;BME280;75657;42.022;21.356;2024-02-21T00:13:03;99470.94;;;8.00;65.09
78309;BME280;75657;42.022;21.356;2024-02-21T00:15:28;99475.47;;;8.00;64.94
78309;BME280;75657;42.022;21.356;2024-02-21T00:17:54;99471.75;;;7.96;65.08
78309;BME280;75657;42.022;21.356;2024-02-21T00:20:19;99475.97;;;7.97;65.24
78309;BME280;75657;42.022;21.356;2024-02-21T00:22:45;99465.91;;;7.93;65.61
78309;BME280;75657;42.022;21.356;2024-02-21T00:25:11;99466.19;;;7.92;65.65
78309;BME280;75657;42.022;21.356;2024-02-21T00:27:36;99465.63;;;7.85;66.07
78309;BME280;75657;42.022;21.356;2024-02-21T00:30:02;99465.09;;;7.88;65.02
78309;BME280;75657;42.022;21.356;2024-02-21T00:32:28;99459.25;;;7.86;65.36
78309;BME280;75657;42.022;21.356;2024-02-21T00:34:53;99450.50;;;7.85;65.61
78309;BME280;75657;42.022;21.356;2024-02-21T00:37:19;99449.72;;;7.85;65.61
78309;BME280;75657;42.022;21.356;2024-02-21T00:39:44;99456.59;;;7.86;65.26
78309;BME280;75657;42.022;21.356;2024-02-21T00:42:10;99450.75;;;7.84;65.48
78309;BME280;75657;42.022;21.356;2024-02-21T00:44:38;99454.19;;;7.84;65.83
78309;BME280;75657;42.022;21.356;2024-02-21T00:47:07;99455.28;;;7.83;65.89
78309;BME280;75657;42.022;21.356;2024-02-21T00:49:59;99456.06;;;7.84;66.15
78309;BME280;75657;42.022;21.356;2024-02-21T00:52:25;99451.28;;;7.86;65.57
78309;BME280;75657;42.022;21.356;2024-02-21T00:54:50;99449.16;;;7.83;65.77
78309;BME280;75657;42.022;21.356;2024-02-21T00:57:16;99452.88;;;7.82;65.83
78309;BME280;75657;42.022;21.356;2024-02-21T00:59:41;99449.69;;;7.80;65.39
78309;BME280;75657;42.022;21.356;2024-02-21T01:02:07;99447.81;;;7.75;65.95
78309;BME280;75657;42.022;21.356;2024-02-21T01:04:32;99447.28;;;7.73;66.40
78309;BME280;75657;42.022;21.356;2024-02-21T01:06:57;99444.38;;;7.69;66.37
78309;BME280;75657;42.022;21.356;2024-02-21T01:09:23;99444.88;;;7.66;66.06
78309;BME280;75657;42.022;21.356;2024-02-21T01:11:49;99444.06;;;7.61;66.67
78309;BME280;75657;42.022;21.356;2024-02-21T01:14:14;99438.97;;;7.49;66.87
78309;BME280;75657;42.022;21.356;2024-02-21T01:16:39;99438.44;;;7.47;66.76
78309;BME280;75657;42.022;21.356;2024-02-21T01:19:05;99436.84;;;7.46;66.55
78309;BME280;75657;42.022;21.356;2024-02-21T01:21:31;99435.00;;;7.46;66.99
78309;BME280;75657;42.022;21.356;2024-02-21T01:23:57;99439.75;;;7.44;67.04
78309;BME280;75657;42.022;21.356;2024-02-21T01:26:23;99434.16;;;7.41;67.06
78309;BME280;75657;42.022;21.356;2024-02-21T01:28:48;99433.91;;;7.42;66.94
78309;BME280;75657;42.022;21.356;2024-02-21T01:31:14;99431.53;;;7.46;66.42
78309;BME280;75657;42.022;21.356;2024-02-21T01:33:40;99435.25;;;7.45;66.64
78309;BME280;75657;42.022;21.356;2024-02-21T01:36:06;99423.81;;;7.39;66.79
78309;BME280;75657;42.022;21.356;2024-02-21T01:38:32;99427.00;;;7.31;66.95
78309;BME280;75657;42.022;21.356;2024-02-21T01:41:23;99418.47;;;7.24;66.61
78309;BME280;75657;42.022;21.356;2024-02-21T01:43:49;99420.56;;;7.16;67.14
78309;BME280;75657;42.022;21.356;2024-02-21T01:46:15;99417.63;;;7.13;67.41
78309;BME280;75657;42.022;21.356;2024-02-21T01:48:41;99413.88;;;7.09;67.44
78309;BME280;75657;42.022;21.356;2024-02-21T01:51:07;99415.22;;;7.06;67.65
78309;BME280;75657;42.022;21.356;2024-02-21T01:53:38;99411.47;;;7.02;67.73
78309;BME280;75657;42.022;21.356;2024-02-21T01:56:05;99406.13;;;6.97;67.33
78309;BME280;75657;42.022;21.356;2024-02-21T01:58:32;99402.69;;;6.91;67.70
78309;BME280;75657;42.022;21.356;2024-02-21T02:00:59;99404.50;;;6.86;67.95
78309;BME280;75657;42.022;21.356;2024-02-21T02:03:24;99398.63;;;6.78;68.10
78309;BME280;75657;42.022;21.356;2024-02-21T02:05:51;99403.66;;;6.75;67.83
78309;BME280;75657;42.022;21.356;2024-02-21T02:08:18;99405.47;;;6.69;67.84
78309;BME280;75657;42.022;21.356;2024-02-21T02:10:45;99409.91;;;6.64;68.12
78309;BME280;75657;42.022;21.356;2024-02-21T02:13:11;99406.44;;;6.58;67.88
78309;BME280;75657;42.022;21.356;2024-02-21T02:18:09;99405.06;;;6.50;68.03
78309;BME280;75657;42.022;21.356;2024-02-21T02:20:35;99404.22;;;6.45;69.03
78309;BME280;75657;42.022;21.356;2024-02-21T02:23:07;99394.31;;;6.30;69.04
78309;BME280;75657;42.022;21.356;2024-02-21T02:25:34;99399.72;;;6.13;69.31
78309;BME280;75657;42.022;21.356;2024-02-21T02:27:59;99407.56;;;6.02;69.51
78309;BME280;75657;42.022;21.356;2024-02-21T02:30:25;99406.56;;;5.86;69.62
78309;BME280;75657;42.022;21.356;2024-02-21T02:32:50;99400.19;;;5.82;69.48
78309;BME280;75657;42.022;21.356;2024-02-21T02:35:16;99406.66;;;5.70;69.87
78309;BME280;75657;42.022;21.356;2024-02-21T02:37:48;99402.38;;;5.63;69.60
78309;BME280;75657;42.022;21.356;2024-02-21T02:40:14;99399.69;;;5.58;69.66
78309;BME280;75657;42.022;21.356;2024-02-21T02:42:40;99401.28;;;5.59;69.42
78309;BME280;75657;42.022;21.356;2024-02-21T02:45:06;99398.59;;;5.54;69.66
78309;BME280;75657;42.022;21.356;2024-02-21T02:47:31;99407.31;;;5.55;69.84
78309;BME280;75657;42.022;21.356;2024-02-21T02:49:57;99401.78;;;5.56;69.67
78309;BME280;75657;42.022;21.356;2024-02-21T02:52:22;99407.53;;;5.53;69.84
78309;BME280;75657;42.022;21.356;2024-02-21T02:54:48;99410.66;;;5.50;70.04
78309;BME280;75657;42.022;21.356;2024-02-21T02:57:17;99416.13;;;5.43;70.18
78309;BME280;75657;42.022;21.356;2024-02-21T02:59:50;99415.84;;;5.40;70.13
78309;BME280;75657;42.022;21.356;2024-02-21T03:02:16;99414.28;;;5.22;70.55
78309;BME280;75657;42.022;21.356;2024-02-21T03:04:42;99418.72;;;5.16;71.02
78309;BME280;75657;42.022;21.356;2024-02-21T03:07:08;99418.41;;;5.13;70.76
78309;BME280;75657;42.022;21.356;2024-02-21T03:09:33;99417.09;;;5.15;70.41
78309;BME280;75657;42.022;21.356;2024-02-21T03:11:59;99426.63;;;5.16;70.59
78309;BME280;75657;42.022;21.356;2024-02-21T03:14:34;99421.34;;;5.16;70.29
78309;BME280;75657;42.022;21.356;2024-02-21T03:16:59;99419.03;;;5.20;70.13
78309;BME280;75657;42.022;21.356;2024-02-21T03:19:25;99427.00;;;5.25;70.23
78309;BME280;75657;42.022;21.356;2024-02-21T03:21:52;99422.28;;;5.27;69.73
78309;BME280;75657;42.022;21.356;2024-02-21T03:24:18;99412.44;;;5.22;70.25
78309;BME280;75657;42.022;21.356;2024-02-21T03:26:45;99419.81;;;5.20;69.83
78309;BME280;75657;42.022;21.356;2024-02-21T03:29:13;99418.41;;;5.13;70.03
78309;BME280;75657;42.022;21.356;2024-02-21T03:31:39;99423.44;;;5.14;69.45
78309;BME280;75657;42.022;21.356;2024-02-21T03:34:04;99418.97;;;5.15;69.71
78309;BME280;75657;42.022;21.356;2024-02-21T03:36:29;99422.94;;;4.95;69.02
78309;BME280;75657;42.022;21.356;2024-02-21T03:38:55;99415.72;;;4.90;70.33
78309;BME280;75657;42.022;21.356;2024-02-21T03:41:21;99416.28;;;4.92;70.05
78309;BME280;75657;42.022;21.356;2024-02-21T03:43:47;99419.75;;;4.76;70.73
78309;BME280;75657;42.022;21.356;2024-02-21T03:46:12;99411.19;;;4.69;69.97
78309;BME280;75657;42.022;21.356;2024-02-21T03:48:37;99421.19;;;4.67;70.68
78309;BME280;75657;42.022;21.356;2024-02-21T03:51:04;99417.13;;;4.59;70.85
78309;BME280;75657;42.022;21.356;2024-02-21T03:53:29;99423.34;;;4.53;71.07
78309;BME280;75657;42.022;21.356;2024-02-21T03:55:55;99424.84;;;4.49;70.95
78309;BME280;75657;42.022;21.356;2024-02-21T03:58:21;99426.38;;;4.45;71.03
78309;BME280;75657;42.022;21.356;2024-02-21T04:00:47;99421.81;;;4.40;71.05
78309;BME280;75657;42.022;21.356;2024-02-21T04:03:13;99420.47;;;4.38;71.35
78309;BME280;75657;42.022;21.356;2024-02-21T04:05:38;99425.75;;;4.38;71.49
78309;BME280;75657;42.022;21.356;2024-02-21T04:08:07;99420.94;;;4.34;71.32
78309;BME280;75657;42.022;21.356;2024-02-21T04:10:33;99415.13;;;4.32;71.08
78309;BME280;75657;42.022;21.356;2024-02-21T04:12:58;99416.72;;;4.33;71.27
78309;BME280;75657;42.022;21.356;2024-02-21T04:15:24;99426.69;;;4.31;71.27
78309;BME280;75657;42.022;21.356;2024-02-21T04:17:49;99423.59;;;4.34;71.25
78309;BME280;75657;42.022;21.356;2024-02-21T04:20:16;99429.19;;;4.38;71.29
78309;BME280;75657;42.022;21.356;2024-02-21T04:22:45;99427.91;;;4.41;71.38
78309;BME280;75657;42.022;21.356;2024-02-21T04:25:11;99426.13;;;4.29;71.44
78309;BME280;75657;42.022;21.356;2024-02-21T04:27:38;99435.56;;;4.25;71.65
78309;BME280;75657;42.022;21.356;2024-02-21T04:30:05;99426.88;;;4.25;71.25
78309;BME280;75657;42.022;21.356;2024-02-21T04:32:30;99440.28;;;4.23;71.21
78309;BME280;75657;42.022;21.356;2024-02-21T04:34:56;99437.88;;;4.22;70.83
78309;BME280;75657;42.022;21.356;2024-02-21T04:37:21;99444.31;;;4.14;71.66
78309;BME280;75657;42.022;21.356;2024-02-21T04:39:48;99448.06;;;4.01;71.40
78309;BME280;75657;42.022;21.356;2024-02-21T04:42:14;99441.25;;;3.88;71.95
78309;BME280;75657;42.022;21.356;2024-02-21T04:44:39;99439.06;;;3.85;72.09
78309;BME280;75657;42.022;21.356;2024-02-21T04:47:05;99441.63;;;3.68;72.27
78309;BME280;75657;42.022;21.356;2024-02-21T04:49:30;99436.13;;;3.70;72.33
78309;BME280;75657;42.022;21.356;2024-02-21T04:51:56;99445.25;;;3.79;72.01
78309;BME280;75657;42.022;21.356;2024-02-21T04:54:21;99445.84;;;3.81;72.25
78309;BME280;75657;42.022;21.356;2024-02-21T04:56:47;99436.09;;;3.82;71.98
78309;BME280;75657;42.022;21.356;2024-02-21T04:59:12;99439.53;;;3.82;72.38
78309;BME280;75657;42.022;21.356;2024-02-21T05:01:38;99439.53;;;3.82;72.02
78309;BME280;75657;42.022;21.356;2024-02-21T05:04:03;99446.19;;;3.85;71.87
78309;BME280;75657;42.022;21.356;2024-02-21T05:06:29;99445.84;;;3.81;72.02
78309;BME280;75657;42.022;21.356;2024-02-21T05:08:55;99453.34;;;3.61;71.61
78309;BME280;75657;42.022;21.356;2024-02-21T05:11:21;99455.53;;;3.52;72.27
78309;BME280;75657;42.022;21.356;2024-02-21T05:13:47;99454.03;;;3.56;72.44
78309;BME280;75657;42.022;21.356;2024-02-21T05:16:12;99455.75;;;3.62;71.60
78309;BME280;75657;42.022;21.356;2024-02-21T05:18:38;99450.16;;;3.58;72.01
78309;BME280;75657;42.022;21.356;2024-02-21T05:21:05;99460.47;;;3.48;72.57
78309;BME280;75657;42.022;21.356;2024-02-21T05:23:30;99468.72;;;3.40;72.32
78309;BME280;75657;42.022;21.356;2024-02-21T05:25:56;99461.06;;;3.27;72.46
78309;BME280;75657;42.022;21.356;2024-02-21T05:28:21;99466.00;;;3.23;72.83
78309;BME280;75657;42.022;21.356;2024-02-21T05:30:47;99470.91;;;3.19;72.62
78309;BME280;75657;42.022;21.356;2024-02-21T05:33:12;99472.53;;;3.20;72.35
78309;BME280;75657;42.022;21.356;2024-02-21T05:35:38;99470.47;;;3.11;73.25
78309;BME280;75657;42.022;21.356;2024-02-21T05:38:03;99469.00;;;3.15;73.13
78309;BME280;75657;42.022;21.356;2024-02-21T05:40:31;99479.63;;;3.20;73.13
78309;BME280;75657;42.022;21.356;2024-02-21T05:42:57;99476.06;;;3.26;73.87
78309;BME280;75657;42.022;21.356;2024-02-21T05:45:23;99476.28;;;3.36;73.23
78309;BME280;75657;42.022;21.356;2024-02-21T05:47:48;99475.94;;;3.45;72.88
78309;BME280;75657;42.022;21.356;2024-02-21T05:50:15;99488.19;;;3.39;73.05
78309;BME280;75657;42.022;21.356;2024-02-21T05:52:40;99485.56;;;3.39;73.44
78309;BME280;75657;42.022;21.356;2024-02-21T05:55:07;99480.88;;;3.41;72.68
78309;BME280;75657;42.022;21.356;2024-02-21T05:57:33;99492.63;;;3.50;73.24
78309;BME280;75657;42.022;21.356;2024-02-21T05:59:59;99494.59;;;3.55;73.15
78309;BME280;75657;42.022;21.356;2024-02-21T06:02:25;99494.53;;;3.67;72.78
78309;BME280;75657;42.022;21.356;2024-02-21T06:04:50;99490.28;;;3.77;72.92
78309;BME280;75657;42.022;21.356;2024-02-21T06:07:16;99492.56;;;3.74;73.35
78309;BME280;75657;42.022;21.356;2024-02-21T06:09:41;99496.25;;;3.73;73.16
78309;BME280;75657;42.022;21.356;2024-02-21T06:12:07;99501.31;;;3.63;73.54
78309;BME280;75657;42.022;21.356;2024-02-21T06:14:32;99501.09;;;3.64;73.09
78309;BME280;75657;42.022;21.356;2024-02-21T06:16:58;99504.63;;;3.70;73.72
78309;BME280;75657;42.022;21.356;2024-02-21T06:19:23;99500.25;;;3.75;73.06
78309;BME280;75657;42.022;21.356;2024-02-21T06:21:49;99502.38;;;3.90;73.18
78309;BME280;75657;42.022;21.356;2024-02-21T06:24:14;99511.75;;;3.98;73.19
78309;BME280;75657;42.022;21.356;2024-02-21T06:26:40;99518.00;;;4.09;72.61
78309;BME280;75657;42.022;21.356;2024-02-21T06:29:06;99512.59;;;4.15;73.07
78309;BME280;75657;42.022;21.356;2024-02-21T06:31:31;99508.00;;;4.23;73.05
78309;BME280;75657;42.022;21.356;2024-02-21T06:33:57;99504.19;;;4.30;73.04
78309;BME280;75657;42.022;21.356;2024-02-21T06:36:22;99506.09;;;4.35;73.38
78309;BME280;75657;42.022;21.356;2024-02-21T06:38:48;99515.75;;;4.29;73.16
78309;BME280;75657;42.022;21.356;2024-02-21T06:41:17;99514.81;;;4.35;73.76
78309;BME280;75657;42.022;21.356;2024-02-21T06:43:45;99511.97;;;4.37;72.96
78309;BME280;75657;42.022;21.356;2024-02-21T06:46:11;99500.22;;;4.45;73.08
78309;BME280;75657;42.022;21.356;2024-02-21T06:48:36;99500.63;;;4.53;73.32
78309;BME280;75657;42.022;21.356;2024-02-21T06:51:02;99504.56;;;4.68;72.41
78309;BME280;75657;42.022;21.356;2024-02-21T06:53:28;99511.59;;;4.79;72.52
78309;BME280;75657;42.022;21.356;2024-02-21T06:55:54;99528.47;;;4.78;73.02
78309;BME280;75657;42.022;21.356;2024-02-21T06:58:19;99538.88;;;4.85;73.49
78309;BME280;75657;42.022;21.356;2024-02-21T07:00:45;99545.03;;;4.90;74.25
78309;BME280;75657;42.022;21.356;2024-02-21T07:03:10;99539.34;;;4.99;73.94
78309;BME280;75657;42.022;21.356;2024-02-21T07:05:36;99549.53;;;5.07;74.28
78309;BME280;75657;42.022;21.356;2024-02-21T07:08:01;99539.13;;;5.17;74.35
78309;BME280;75657;42.022;21.356;2024-02-21T07:10:27;99543.25;;;5.30;74.54
78309;BME280;75657;42.022;21.356;2024-02-21T07:12:54;99548.75;;;5.45;74.00
78309;BME280;75657;42.022;21.356;2024-02-21T07:15:20;99543.94;;;5.59;73.11
78309;BME280;75657;42.022;21.356;2024-02-21T07:17:45;99543.88;;;5.76;73.55
78309;BME280;75657;42.022;21.356;2024-02-21T07:20:11;99546.72;;;5.92;73.52
78309;BME280;75657;42.022;21.356;2024-02-21T07:22:36;99548.03;;;6.11;72.64
78309;BME280;75657;42.022;21.356;2024-02-21T07:25:02;99544.00;;;6.31;71.91
78309;BME280;75657;42.022;21.356;2024-02-21T07:27:28;99534.41;;;6.47;71.63
78309;BME280;75657;42.022;21.356;2024-02-21T07:29:56;99548.88;;;6.66;70.92
78309;BME280;75657;42.022;21.356;2024-02-21T07:32:22;99542.91;;;6.81;70.66
78309;BME280;75657;42.022;21.356;2024-02-21T07:34:47;99537.97;;;6.95;69.96
78309;BME280;75657;42.022;21.356;2024-02-21T07:37:13;99542.34;;;7.11;69.25
78309;BME280;75657;42.022;21.356;2024-02-21T07:39:38;99532.38;;;7.24;69.12
78309;BME280;75657;42.022;21.356;2024-02-21T07:42:04;99532.72;;;7.37;68.17
78309;BME280;75657;42.022;21.356;2024-02-21T07:44:30;99532.78;;;7.53;68.07
78309;BME280;75657;42.022;21.356;2024-02-21T07:46:57;99531.28;;;7.67;67.56
78309;BME280;75657;42.022;21.356;2024-02-21T07:49:22;99527.13;;;7.82;67.38
78309;BME280;75657;42.022;21.356;2024-02-21T07:51:48;99535.13;;;7.97;66.81
78309;BME280;75657;42.022;21.356;2024-02-21T07:54:13;99527.75;;;8.09;65.51
78309;BME280;75657;42.022;21.356;2024-02-21T07:56:39;99525.13;;;8.20;66.03
78309;BME280;75657;42.022;21.356;2024-02-21T07:59:05;99531.00;;;8.32;65.75
78309;BME280;75657;42.022;21.356;2024-02-21T08:01:30;99529.19;;;8.48;65.16
78309;BME280;75657;42.022;21.356;2024-02-21T08:03:56;99514.34;;;8.62;64.88
78309;BME280;75657;42.022;21.356;2024-02-21T08:06:21;99526.28;;;8.75;64.56
78309;BME280;75657;42.022;21.356;2024-02-21T08:08:47;99515.94;;;8.79;64.19
78309;BME280;75657;42.022;21.356;2024-02-21T08:11:12;99513.81;;;8.91;64.08
78309;BME280;75657;42.022;21.356;2024-02-21T08:13:38;99510.88;;;9.03;63.05
78309;BME280;75657;42.022;21.356;2024-02-21T08:16:04;99515.66;;;9.11;63.11
78309;BME280;75657;42.022;21.356;2024-02-21T08:18:29;99512.16;;;9.26;62.65
78309;BME280;75657;42.022;21.356;2024-02-21T08:20:55;99510.84;;;9.39;61.84
78309;BME280;75657;42.022;21.356;2024-02-21T08:23:23;99507.59;;;9.52;61.76
78309;BME280;75657;42.022;21.356;2024-02-21T08:25:49;99513.69;;;9.63;61.21
78309;BME280;75657;42.022;21.356;2024-02-21T08:28:15;99516.84;;;9.75;60.65
78309;BME280;75657;42.022;21.356;2024-02-21T08:30:40;99506.69;;;9.88;60.62
78309;BME280;75657;42.022;21.356;2024-02-21T08:33:09;99504.75;;;9.98;59.89
78309;BME280;75657;42.022;21.356;2024-02-21T08:35:35;99502.03;;;10.14;59.54
78309;BME280;75657;42.022;21.356;2024-02-21T08:38:00;99509.69;;;10.26;59.51
78309;BME280;75657;42.022;21.356;2024-02-21T08:40:26;99502.72;;;10.35;58.69
78309;BME280;75657;42.022;21.356;2024-02-21T08:42:51;99501.88;;;10.39;59.07
78309;BME280;75657;42.022;21.356;2024-02-21T08:45:17;99496.28;;;10.41;58.42
78309;BME280;75657;42.022;21.356;2024-02-21T08:47:42;99500.03;;;10.40;58.07
78309;BME280;75657;42.022;21.356;2024-02-21T08:50:08;99508.25;;;10.44;58.39
78309;BME280;75657;42.022;21.356;2024-02-21T08:52:37;99491.63;;;10.57;57.78
78309;BME280;75657;42.022;21.356;2024-02-21T08:55:03;99499.59;;;10.62;58.41
78309;BME280;75657;42.022;21.356;2024-02-21T08:57:28;99494.81;;;10.64;58.01
78309;BME280;75657;42.022;21.356;2024-02-21T08:59:54;99500.25;;;10.78;57.64
78309;BME280;75657;42.022;21.356;2024-02-21T09:02:19;99501.56;;;10.86;57.16
78309;BME280;75657;42.022;21.356;2024-02-21T09:04:45;99500.31;;;11.02;57.44
78309;BME280;75657;42.022;21.356;2024-02-21T09:07:11;99500.41;;;11.21;55.83
78309;BME280;75657;42.022;21.356;2024-02-21T09:09:37;99498.22;;;11.28;55.92
78309;BME280;75657;42.022;21.356;2024-02-21T09:12:06;99495.50;;;11.33;55.89
78309;BME280;75657;42.022;21.356;2024-02-21T09:14:37;99507.38;;;11.46;55.38
78309;BME280;75657;42.022;21.356;2024-02-21T09:17:06;99496.56;;;11.57;55.68
78309;BME280;75657;42.022;21.356;2024-02-21T09:19:31;99494.22;;;11.55;54.40
78309;BME280;75657;42.022;21.356;2024-02-21T09:21:57;99499.31;;;11.51;54.35
78309;BME280;75657;42.022;21.356;2024-02-21T09:24:22;99500.22;;;11.42;53.27
78309;BME280;75657;42.022;21.356;2024-02-21T09:26:47;99502.75;;;11.28;53.69
78309;BME280;75657;42.022;21.356;2024-02-21T09:29:14;99501.38;;;11.30;54.16
78309;BME280;75657;42.022;21.356;2024-02-21T09:31:40;99499.03;;;11.29;54.22
78309;BME280;75657;42.022;21.356;2024-02-21T09:34:07;99495.16;;;11.40;54.74
78309;BME280;75657;42.022;21.356;2024-02-21T09:36:32;99494.31;;;11.45;54.53
78309;BME280;75657;42.022;21.356;2024-02-21T09:38:58;99495.31;;;11.49;53.75
78309;BME280;75657;42.022;21.356;2024-02-21T09:41:27;99496.72;;;11.46;53.83
78309;BME280;75657;42.022;21.356;2024-02-21T09:43:53;99496.41;;;11.48;53.21
78309;BME280;75657;42.022;21.356;2024-02-21T09:46:21;99493.97;;;11.51;52.73
78309;BME280;75657;42.022;21.356;2024-02-21T09:51:34;99495.03;;;11.75;51.87
78309;BME280;75657;42.022;21.356;2024-02-21T09:54:01;99493.53;;;11.87;52.32
78309;BME280;75657;42.022;21.356;2024-02-21T09:56:28;99501.66;;;12.01;51.32
78309;BME280;75657;42.022;21.356;2024-02-21T09:58:54;99500.31;;;12.04;51.39
78309;BME280;75657;42.022;21.356;2024-02-21T10:01:19;99496.53;;;12.05;51.83
78309;BME280;75657;42.022;21.356;2024-02-21T10:03:45;99488.13;;;12.17;51.87
78309;BME280;75657;42.022;21.356;2024-02-21T10:06:10;99493.09;;;12.42;50.82
78309;BME280;75657;42.022;21.356;2024-02-21T10:08:38;99487.88;;;12.84;50.49
78309;BME280;75657;42.022;21.356;2024-02-21T10:11:04;99484.53;;;12.92;49.91
78309;BME280;75657;42.022;21.356;2024-02-21T10:13:30;99486.66;;;12.76;48.79
78309;BME280;75657;42.022;21.356;2024-02-21T10:16:07;99484.25;;;12.61;48.43
78309;BME280;75657;42.022;21.356;2024-02-21T10:18:34;99484.19;;;12.47;49.17
78309;BME280;75657;42.022;21.356;2024-02-21T10:21:17;99477.69;;;12.53;50.03
78309;BME280;75657;42.022;21.356;2024-02-21T10:24:09;99465.25;;;12.62;48.81
78309;BME280;75657;42.022;21.356;2024-02-21T10:26:35;99454.81;;;12.80;48.96
78309;BME280;75657;42.022;21.356;2024-02-21T10:29:02;99457.13;;;13.00;48.24
78309;BME280;75657;42.022;21.356;2024-02-21T10:31:28;99452.41;;;13.25;48.06
78309;BME280;75657;42.022;21.356;2024-02-21T10:37:32;99426.81;;;13.74;47.26
78309;BME280;75657;42.022;21.356;2024-02-21T10:39:58;99435.91;;;13.87;46.18
78309;BME280;75657;42.022;21.356;2024-02-21T10:42:28;99423.88;;;13.98;45.65
78309;BME280;75657;42.022;21.356;2024-02-21T10:45:03;99416.25;;;13.92;45.89
78309;BME280;75657;42.022;21.356;2024-02-21T10:47:31;99412.13;;;13.86;46.52
78309;BME280;75657;42.022;21.356;2024-02-21T10:50:20;99412.94;;;13.72;46.61
78309;BME280;75657;42.022;21.356;2024-02-21T10:55:32;99405.13;;;13.20;46.08
78309;BME280;75657;42.022;21.356;2024-02-21T10:58:11;99397.94;;;13.07;46.49
78309;BME280;75657;42.022;21.356;2024-02-21T11:00:49;99393.66;;;12.92;46.44
78309;BME280;75657;42.022;21.356;2024-02-21T11:03:15;99395.91;;;12.71;46.31
78309;BME280;75657;42.022;21.356;2024-02-21T11:05:41;99391.53;;;12.61;46.75
78309;BME280;75657;42.022;21.356;2024-02-21T11:08:08;99385.19;;;12.57;47.80
78309;BME280;75657;42.022;21.356;2024-02-21T11:10:36;99384.41;;;12.57;46.54
78309;BME280;75657;42.022;21.356;2024-02-21T11:16:28;99371.78;;;12.90;47.02
78309;BME280;75657;42.022;21.356;2024-02-21T11:21:47;99366.22;;;13.28;46.54
78309;BME280;75657;42.022;21.356;2024-02-21T11:24:13;99368.66;;;13.52;46.71
78309;BME280;75657;42.022;21.356;2024-02-21T11:26:39;99363.69;;;13.73;45.12
78309;BME280;75657;42.022;21.356;2024-02-21T11:29:07;99355.28;;;13.89;44.47
78309;BME280;75657;42.022;21.356;2024-02-21T11:31:44;99353.03;;;14.05;44.60
78309;BME280;75657;42.022;21.356;2024-02-21T11:34:11;99347.25;;;14.11;44.15
78309;BME280;75657;42.022;21.356;2024-02-21T11:36:47;99340.75;;;14.26;44.50
78309;BME280;75657;42.022;21.356;2024-02-21T11:39:25;99321.66;;;14.50;44.27
78309;BME280;75657;42.022;21.356;2024-02-21T11:42:07;99320.19;;;14.76;44.00
78309;BME280;75657;42.022;21.356;2024-02-21T11:44:37;99322.25;;;14.79;43.91
78309;BME280;75657;42.022;21.356;2024-02-21T11:47:08;99313.38;;;14.69;43.56
78309;BME280;75657;42.022;21.356;2024-02-21T11:49:45;99308.19;;;14.64;43.73
78309;BME280;75657;42.022;21.356;2024-02-21T11:52:11;99309.78;;;14.74;43.11
78309;BME280;75657;42.022;21.356;2024-02-21T11:54:39;99306.69;;;14.98;43.35
78309;BME280;75657;42.022;21.356;2024-02-21T11:57:05;99301.97;;;15.04;42.86
78309;BME280;75657;42.022;21.356;2024-02-21T11:59:31;99299.47;;;15.16;42.92
78309;BME280;75657;42.022;21.356;2024-02-21T12:01:58;99296.50;;;15.26;41.93
78309;BME280;75657;42.022;21.356;2024-02-21T12:04:24;99286.41;;;15.41;41.52
78309;BME280;75657;42.022;21.356;2024-02-21T12:06:49;99284.03;;;15.48;41.89
78309;BME280;75657;42.022;21.356;2024-02-21T12:09:18;99282.16;;;15.57;41.56
78309;BME280;75657;42.022;21.356;2024-02-21T12:11:44;99276.16;;;15.52;41.02
78309;BME280;75657;42.022;21.356;2024-02-21T12:14:10;99270.28;;;15.23;40.50
78309;BME280;75657;42.022;21.356;2024-02-21T12:16:36;99264.44;;;15.21;41.86
78309;BME280;75657;42.022;21.356;2024-02-21T12:19:05;99261.00;;;15.38;41.23
78309;BME280;75657;42.022;21.356;2024-02-21T12:21:32;99270.94;;;15.38;41.33
78309;BME280;75657;42.022;21.356;2024-02-21T12:26:40;99260.69;;;15.31;40.09
78309;BME280;75657;42.022;21.356;2024-02-21T12:29:06;99254.50;;;15.30;40.30
78309;BME280;75657;42.022;21.356;2024-02-21T12:31:32;99250.09;;;15.26;39.68
78309;BME280;75657;42.022;21.356;2024-02-21T12:33:57;99252.63;;;15.22;40.62
78309;BME280;75657;42.022;21.356;2024-02-21T12:36:23;99253.25;;;15.19;39.23
78309;BME280;75657;42.022;21.356;2024-02-21T12:38:49;99251.50;;;15.06;39.35
78309;BME280;75657;42.022;21.356;2024-02-21T12:41:15;99245.00;;;14.81;39.54
78309;BME280;75657;42.022;21.356;2024-02-21T12:43:40;99234.47;;;14.53;39.20
78309;BME280;75657;42.022;21.356;2024-02-21T12:46:06;99235.19;;;14.36;40.54
78309;BME280;75657;42.022;21.356;2024-02-21T12:48:33;99238.59;;;14.10;40.95
78309;BME280;75657;42.022;21.356;2024-02-21T12:50:59;99233.56;;;13.86;40.90
78309;BME280;75657;42.022;21.356;2024-02-21T12:53:25;99228.41;;;13.67;40.72
78309;BME280;75657;42.022;21.356;2024-02-21T12:55:51;99225.84;;;13.62;42.08
78309;BME280;75657;42.022;21.356;2024-02-21T12:58:16;99232.28;;;13.61;42.09
78309;BME280;75657;42.022;21.356;2024-02-21T13:00:42;99226.28;;;13.55;42.29
78309;BME280;75657;42.022;21.356;2024-02-21T13:03:08;99218.72;;;13.57;41.29
78309;BME280;75657;42.022;21.356;2024-02-21T13:05:37;99220.81;;;13.60;41.56
78309;BME280;75657;42.022;21.356;2024-02-21T13:08:05;99220.16;;;13.55;41.48
78309;BME280;75657;42.022;21.356;2024-02-21T13:10:30;99218.13;;;13.60;42.09
78309;BME280;75657;42.022;21.356;2024-02-21T13:12:56;99213.44;;;13.66;42.01
78309;BME280;75657;42.022;21.356;2024-02-21T13:15:21;99222.28;;;13.67;43.63